Time;durP1;ratioP1;P1;durP2;ratioP2;P2;SDS_P1;SDS_P2;PMS_P1;PMS_P2;Temp;Humidity;BMP_temperature;BMP_pressure;BME280_temperature;BME280_humidity;BME280_pressure;Samples;Min_cycle;Max_cycle;Signal;HPM_P1;HPM_P2
2022/09/21 00:02:25;;;;;;;10.43;2.50;;;8.30;99.90;;;;;;4953883;29;20601;-78
2022/09/21 00:04:50;;;;;;;3.97;2.67;;;8.30;99.90;;;;;;4954952;29;20216;-77
2022/09/21 00:07:16;;;;;;;4.50;2.30;;;8.30;99.90;;;;;;4954982;28;20220;-78
2022/09/21 00:09:41;;;;;;;7.33;2.83;;;8.30;99.90;;;;;;4955158;29;20180;-78
2022/09/21 00:12:08;;;;;;;4.07;2.40;;;8.30;99.90;;;;;;4954205;29;20496;-76
2022/09/21 00:14:33;;;;;;;8.43;2.70;;;8.20;99.90;;;;;;4954896;29;20173;-77
2022/09/21 00:16:59;;;;;;;8.23;2.03;;;8.20;99.90;;;;;;4953928;29;20220;-77
2022/09/21 00:19:25;;;;;;;10.30;3.10;;;8.20;99.90;;;;;;4955214;29;20264;-77
2022/09/21 00:21:54;;;;;;;4.50;2.27;;;8.20;99.90;;;;;;4938170;29;20188;-77
2022/09/21 00:24:19;;;;;;;6.20;3.20;;;8.10;99.90;;;;;;4954873;28;20541;-78
2022/09/21 00:26:45;;;;;;;6.10;2.20;;;8.10;99.90;;;;;;4953689;29;20220;-77
2022/09/21 00:29:11;;;;;;;5.60;2.50;;;8.00;99.90;;;;;;4953677;28;20535;-77
2022/09/21 00:31:36;;;;;;;2.80;2.40;;;8.00;99.90;;;;;;4953738;28;20185;-78
2022/09/21 00:34:02;;;;;;;2.90;2.60;;;8.00;99.90;;;;;;4953488;29;20432;-76
2022/09/21 00:36:28;;;;;;;5.77;2.60;;;8.00;99.90;;;;;;4955060;28;20704;-77
2022/09/21 00:39:00;;;;;;;8.00;2.90;;;8.00;99.90;;;;;;4955027;29;20216;-78
2022/09/21 00:41:28;;;;;;;9.18;2.63;;;7.90;99.90;;;;;;4954791;29;20189;-77
2022/09/21 00:44:17;;;;;;;8.32;2.55;;;7.90;99.90;;;;;;4954716;29;20181;-75
2022/09/21 00:46:44;;;;;;;8.65;3.45;;;7.90;99.90;;;;;;4951970;29;20225;-76
2022/09/21 00:49:10;;;;;;;4.45;2.63;;;7.90;99.90;;;;;;4954866;29;20179;-75
2022/09/21 00:51:36;;;;;;;4.60;2.13;;;7.90;99.90;;;;;;4954691;28;20260;-76
2022/09/21 00:54:08;;;;;;;6.22;2.80;;;7.80;99.90;;;;;;4953319;29;20248;-77
2022/09/21 00:56:35;;;;;;;6.03;2.95;;;7.80;99.90;;;;;;4954921;29;20204;-78
2022/09/21 00:59:02;;;;;;;7.10;2.60;;;7.80;99.90;;;;;;4954776;29;20185;-76
2022/09/21 01:01:28;;;;;;;4.55;3.22;;;7.80;99.90;;;;;;4954429;28;20196;-77
2022/09/21 01:03:56;;;;;;;4.07;2.53;;;7.70;99.90;;;;;;4958380;28;20189;-78
2022/09/21 01:06:22;;;;;;;6.47;2.65;;;7.70;99.90;;;;;;4957237;29;20216;-76
2022/09/21 01:08:54;;;;;;;4.80;2.78;;;7.70;99.90;;;;;;4958473;29;20185;-76
2022/09/21 01:11:33;;;;;;;6.80;2.72;;;7.60;99.90;;;;;;4958481;29;20177;-77
2022/09/21 01:14:10;;;;;;;3.83;2.67;;;7.60;99.90;;;;;;4957906;29;20160;-79
2022/09/21 01:17:01;;;;;;;5.18;2.90;;;7.40;99.90;;;;;;4958190;29;20200;-78
2022/09/21 01:19:35;;;;;;;3.15;2.63;;;7.40;99.90;;;;;;4958348;29;20264;-76
2022/09/21 01:22:21;;;;;;;3.20;2.33;;;7.40;99.90;;;;;;4958189;29;20186;-77
2022/09/21 01:25:05;;;;;;;8.75;2.80;;;7.40;99.90;;;;;;4936687;28;20203;-77
2022/09/21 01:27:41;;;;;;;6.25;3.20;;;7.40;99.90;;;;;;4956874;28;20212;-76
2022/09/21 01:30:12;;;;;;;3.80;3.03;;;7.40;99.90;;;;;;4958075;29;20180;-78
2022/09/21 01:32:54;;;;;;;8.38;3.38;;;7.30;99.90;;;;;;4957981;29;20158;-79
2022/09/21 01:35:31;;;;;;;3.90;2.80;;;7.30;99.90;;;;;;4957751;29;20573;-78
2022/09/21 01:38:00;;;;;;;4.65;3.22;;;7.30;99.90;;;;;;4957732;29;20200;-77
2022/09/21 01:40:39;;;;;;;6.80;3.25;;;7.30;99.90;;;;;;4957859;29;20184;-74
2022/09/21 01:43:08;;;;;;;6.00;3.03;;;7.30;99.90;;;;;;4957825;28;20262;-79
2022/09/21 01:45:39;;;;;;;5.05;3.00;;;7.20;99.90;;;;;;4957825;29;20208;-79
2022/09/21 01:48:06;;;;;;;6.07;3.97;;;7.20;99.90;;;;;;4957679;28;20209;-77
2022/09/21 01:50:37;;;;;;;18.08;4.05;;;7.20;99.90;;;;;;4956375;28;20188;-76
2022/09/21 01:53:43;;;;;;;4.68;3.60;;;7.20;99.90;;;;;;4957696;28;20184;-76
2022/09/21 01:56:17;;;;;;;6.25;3.15;;;7.10;99.90;;;;;;4956430;29;20697;-78
2022/09/21 01:58:51;;;;;;;6.55;2.90;;;7.10;99.90;;;;;;4957918;28;20179;-77
2022/09/21 02:01:20;;;;;;;5.60;4.03;;;7.10;99.90;;;;;;4957017;29;20201;-77
2022/09/21 02:03:56;;;;;;;3.80;2.67;;;7.20;99.90;;;;;;4940090;29;20199;-79
2022/09/21 02:06:25;;;;;;;8.88;3.60;;;7.20;99.90;;;;;;4955861;29;20203;-78
2022/09/21 02:08:52;;;;;;;8.07;3.35;;;7.10;99.90;;;;;;4956044;29;20173;-78
2022/09/21 02:11:18;;;;;;;8.48;3.50;;;7.00;99.90;;;;;;4956246;28;20177;-77
2022/09/21 02:13:47;;;;;;;4.22;3.05;;;7.00;99.90;;;;;;4939450;29;20177;-77
2022/09/21 02:16:47;;;;;;;4.97;3.55;;;7.00;99.90;;;;;;4957169;29;20303;-75
2022/09/21 02:19:49;;;;;;;10.98;4.00;;;7.00;99.90;;;;;;4957173;29;20177;-78
2022/09/21 02:22:50;;;;;;;4.28;3.70;;;6.90;99.90;;;;;;4939964;29;20266;-76
2022/09/21 02:25:27;;;;;;;5.45;3.50;;;6.80;99.90;;;;;;4954726;28;20202;-76
2022/09/21 02:28:00;;;;;;;5.47;3.85;;;6.80;99.90;;;;;;4956964;29;20236;-78
2022/09/21 02:30:27;;;;;;;5.43;4.30;;;6.90;99.90;;;;;;4955628;28;20612;-76
2022/09/21 02:33:04;;;;;;;4.45;4.00;;;6.90;99.90;;;;;;4956860;29;20173;-78
2022/09/21 02:35:47;;;;;;;5.80;3.60;;;6.80;99.90;;;;;;4940317;29;20177;-78
2022/09/21 02:38:18;;;;;;;6.93;4.13;;;6.80;99.90;;;;;;4937529;29;20714;-75
2022/09/21 02:40:54;;;;;;;12.00;4.20;;;6.80;99.90;;;;;;4937768;29;20188;-76
2022/09/21 02:43:40;;;;;;;7.55;4.40;;;6.80;99.90;;;;;;4937570;29;20220;-75
2022/09/21 02:46:26;;;;;;;4.82;3.47;;;6.80;99.90;;;;;;4937080;29;20201;-79
2022/09/21 02:48:56;;;;;;;8.48;4.32;;;6.80;99.90;;;;;;4937502;29;20181;-77
2022/09/21 02:51:29;;;;;;;6.72;4.53;;;6.80;99.90;;;;;;4937419;29;20173;-77
2022/09/21 02:53:57;;;;;;;12.88;4.95;;;6.70;99.90;;;;;;4937143;29;20204;-77
2022/09/21 02:56:23;;;;;;;9.15;4.88;;;6.70;99.90;;;;;;4936957;29;20213;-76
2022/09/21 02:58:53;;;;;;;5.97;4.20;;;6.70;99.90;;;;;;4937239;29;20176;-76
2022/09/21 03:01:20;;;;;;;4.93;4.43;;;6.70;99.90;;;;;;4937160;29;20175;-78
2022/09/21 03:03:46;;;;;;;6.00;4.60;;;6.60;99.90;;;;;;4937018;29;20173;-75
2022/09/21 03:06:12;;;;;;;11.43;5.00;;;6.60;99.90;;;;;;4919919;29;20204;-78
2022/09/21 03:08:38;;;;;;;7.30;5.17;;;6.50;99.90;;;;;;4951729;29;20237;-79
2022/09/21 03:11:04;;;;;;;7.30;5.93;;;6.50;99.90;;;;;;4937172;29;20647;-78
2022/09/21 03:13:29;;;;;;;6.13;5.53;;;6.50;99.90;;;;;;4937087;29;20638;-75
2022/09/21 03:16:06;;;;;;;6.67;5.43;;;6.50;99.90;;;;;;4951540;29;20441;-76
2022/09/21 03:18:32;;;;;;;6.80;5.03;;;6.50;99.90;;;;;;4936931;29;20173;-77
2022/09/21 03:20:58;;;;;;;13.00;5.25;;;6.40;99.90;;;;;;4951593;28;20281;-80
2022/09/21 03:23:24;;;;;;;5.40;4.50;;;6.50;99.90;;;;;;4936599;29;20269;-77
2022/09/21 03:25:53;;;;;;;7.70;5.28;;;6.50;99.90;;;;;;4935914;29;20421;-76
2022/09/21 03:28:20;;;;;;;6.50;4.47;;;6.50;99.90;;;;;;4919584;29;20216;-77
2022/09/21 03:30:48;;;;;;;7.30;4.05;;;6.50;99.90;;;;;;4936774;29;20231;-76
2022/09/21 03:33:15;;;;;;;6.90;5.15;;;6.50;99.90;;;;;;4935799;29;20189;-75
2022/09/21 03:35:41;;;;;;;9.30;4.80;;;6.50;99.90;;;;;;4936318;29;20178;-77
2022/09/21 03:38:07;;;;;;;5.35;4.50;;;6.40;99.90;;;;;;4951582;29;20613;-74
2022/09/21 03:40:33;;;;;;;5.13;4.50;;;6.30;99.90;;;;;;4936792;29;20215;-74
2022/09/21 03:42:58;;;;;;;8.20;4.27;;;6.20;99.90;;;;;;4935933;29;20435;-75
2022/09/21 03:45:26;;;;;;;5.10;4.23;;;6.20;99.90;;;;;;4936601;29;20196;-76
2022/09/21 03:47:56;;;;;;;5.43;4.40;;;6.30;99.90;;;;;;4950907;29;20744;-74
2022/09/21 03:50:24;;;;;;;8.85;5.43;;;6.20;99.90;;;;;;4936277;29;20711;-77
2022/09/21 03:52:50;;;;;;;15.77;5.28;;;6.20;99.90;;;;;;4936138;29;20189;-74
2022/09/21 03:55:16;;;;;;;9.00;4.97;;;6.10;99.90;;;;;;4950895;29;20178;-76
2022/09/21 03:57:41;;;;;;;6.27;4.73;;;6.10;99.90;;;;;;4936263;29;20220;-75
2022/09/21 04:00:09;;;;;;;6.90;5.03;;;6.10;99.90;;;;;;4951191;29;20424;-78
2022/09/21 04:02:37;;;;;;;5.53;4.72;;;6.10;99.90;;;;;;4919177;29;20183;-76
2022/09/21 04:05:03;;;;;;;6.00;4.65;;;6.10;99.90;;;;;;4918618;29;20267;-77
2022/09/21 04:07:34;;;;;;;7.17;5.23;;;6.10;99.90;;;;;;4936112;29;20303;-75
2022/09/21 04:10:02;;;;;;;6.78;5.22;;;6.10;99.90;;;;;;4936166;29;20427;-77
2022/09/21 04:12:27;;;;;;;6.28;4.65;;;6.10;99.90;;;;;;4936214;29;20220;-75
2022/09/21 04:14:53;;;;;;;7.80;5.67;;;6.10;99.90;;;;;;4950628;28;20256;-76
2022/09/21 04:17:19;;;;;;;7.17;5.00;;;6.10;99.90;;;;;;4934650;29;20706;-75
2022/09/21 04:19:44;;;;;;;5.60;5.00;;;6.00;99.90;;;;;;4935919;29;20593;-76
2022/09/21 04:22:11;;;;;;;10.13;5.93;;;6.00;99.90;;;;;;4951255;29;20421;-77
2022/09/21 04:24:39;;;;;;;10.45;5.72;;;6.10;99.90;;;;;;4935876;29;20230;-75
2022/09/21 04:27:06;;;;;;;10.57;6.10;;;6.10;99.90;;;;;;4933800;29;20317;-77
2022/09/21 04:29:31;;;;;;;8.23;5.25;;;6.10;99.90;;;;;;4936415;29;20200;-78
2022/09/21 04:31:57;;;;;;;9.90;4.90;;;6.00;99.90;;;;;;4950877;28;20284;-76
2022/09/21 04:34:23;;;;;;;8.90;4.87;;;6.00;99.90;;;;;;4934657;29;20279;-76
2022/09/21 04:36:48;;;;;;;7.90;5.00;;;6.00;99.90;;;;;;4939150;29;20571;-73
2022/09/21 04:39:14;;;;;;;18.27;5.40;;;5.90;99.90;;;;;;4939693;29;20197;-75
2022/09/21 04:41:40;;;;;;;5.13;4.30;;;5.80;99.90;;;;;;4939227;29;20192;-75
2022/09/21 04:44:06;;;;;;;7.55;4.22;;;5.80;99.90;;;;;;4939356;29;20216;-75
2022/09/21 04:46:32;;;;;;;7.90;5.47;;;5.80;99.90;;;;;;4939515;29;20288;-75
2022/09/21 04:48:58;;;;;;;7.97;5.50;;;5.80;99.90;;;;;;4938363;29;20196;-76
2022/09/21 04:51:23;;;;;;;7.70;5.23;;;5.70;99.90;;;;;;4939440;29;20189;-76
2022/09/21 04:53:50;;;;;;;5.53;4.37;;;5.70;99.90;;;;;;4939234;29;20182;-76
2022/09/21 04:56:15;;;;;;;7.07;5.13;;;5.70;99.90;;;;;;4939570;29;20190;-77
2022/09/21 04:58:42;;;;;;;6.90;4.77;;;5.70;99.90;;;;;;4957104;28;20721;-75
2022/09/21 05:01:08;;;;;;;8.82;5.07;;;5.70;99.90;;;;;;4958481;29;20185;-75
2022/09/21 05:03:33;;;;;;;9.53;5.60;;;5.70;99.90;;;;;;4958285;28;20263;-75
2022/09/21 05:05:59;;;;;;;7.50;4.93;;;5.70;99.90;;;;;;4958059;29;20439;-75
2022/09/21 05:11:14;;;;;;;8.50;4.90;;;5.70;99.90;;;;;;4958616;29;20406;-73
2022/09/21 05:13:40;;;;;;;5.63;4.93;;;5.60;99.90;;;;;;4941000;29;20263;-76
2022/09/21 05:16:06;;;;;;;7.60;5.50;;;5.60;99.90;;;;;;4957977;28;20287;-76
2022/09/21 05:18:31;;;;;;;6.50;5.40;;;5.70;99.90;;;;;;4958318;29;20421;-75
2022/09/21 05:20:59;;;;;;;6.63;4.43;;;5.70;99.90;;;;;;4941029;29;20196;-79
2022/09/21 05:23:25;;;;;;;6.57;4.80;;;5.70;99.90;;;;;;4958343;29;20212;-76
2022/09/21 05:25:51;;;;;;;5.82;4.43;;;5.70;99.90;;;;;;4957713;29;20192;-75
2022/09/21 05:28:18;;;;;;;9.63;4.77;;;5.70;99.90;;;;;;4958053;29;20212;-77
2022/09/21 05:30:47;;;;;;;9.98;5.70;;;5.70;99.90;;;;;;4957881;28;20195;-76
2022/09/21 05:33:18;;;;;;;5.85;4.72;;;5.60;99.90;;;;;;4958047;28;20174;-76
2022/09/21 05:35:57;;;;;;;6.07;4.93;;;5.70;99.90;;;;;;4957810;29;20177;-76
2022/09/21 05:38:23;;;;;;;4.75;3.95;;;5.70;99.90;;;;;;4958218;29;20176;-76
2022/09/21 05:40:49;;;;;;;7.73;5.20;;;5.70;99.90;;;;;;4957990;29;20243;-75
2022/09/21 05:43:16;;;;;;;11.95;4.70;;;5.70;99.90;;;;;;4956763;29;20423;-73
2022/09/21 05:45:51;;;;;;;9.18;6.30;;;5.70;99.90;;;;;;4957311;28;20185;-76
2022/09/21 05:48:21;;;;;;;5.68;5.05;;;5.80;99.90;;;;;;4939732;29;20302;-76
2022/09/21 05:51:31;;;;;;;10.93;4.95;;;5.80;99.90;;;;;;4940475;29;20183;-75
2022/09/21 05:54:19;;;;;;;9.85;5.05;;;5.80;99.90;;;;;;4957195;29;20184;-76
2022/09/21 05:57:09;;;;;;;7.45;4.63;;;5.80;99.90;;;;;;4956279;29;20211;-75
2022/09/21 06:00:06;;;;;;;6.00;4.78;;;5.80;99.90;;;;;;4957465;29;20177;-75
2022/09/21 06:02:46;;;;;;;12.40;4.75;;;5.90;99.90;;;;;;4957516;28;20173;-75
2022/09/21 06:05:14;;;;;;;8.90;5.35;;;6.00;99.90;;;;;;4955858;29;20235;-76
2022/09/21 06:07:40;;;;;;;5.90;4.80;;;6.00;99.90;;;;;;4957187;29;20204;-76
2022/09/21 06:10:11;;;;;;;6.15;5.35;;;6.00;99.90;;;;;;4955931;29;20536;-75
2022/09/21 06:12:36;;;;;;;14.20;4.30;;;6.10;99.90;;;;;;4957443;29;20181;-75
2022/09/21 06:15:03;;;;;;;11.77;4.63;;;6.10;99.90;;;;;;4957016;28;20188;-76
2022/09/21 06:17:28;;;;;;;7.68;5.13;;;6.20;99.90;;;;;;4955942;29;20209;-75
2022/09/21 06:19:54;;;;;;;6.10;4.53;;;6.20;99.90;;;;;;4957059;29;20192;-75
2022/09/21 06:22:20;;;;;;;14.67;5.10;;;6.30;99.90;;;;;;4957019;29;20189;-74
2022/09/21 06:24:46;;;;;;;6.85;4.88;;;6.40;99.90;;;;;;4957024;28;20189;-76
2022/09/21 06:27:11;;;;;;;15.13;5.43;;;6.40;99.90;;;;;;4957043;28;20208;-76
2022/09/21 06:29:37;;;;;;;10.43;5.80;;;6.50;99.90;;;;;;4956798;28;20199;-77
2022/09/21 06:32:03;;;;;;;8.00;4.93;;;6.60;99.90;;;;;;4956972;29;20176;-79
2022/09/21 06:34:29;;;;;;;7.95;5.60;;;6.70;99.90;;;;;;4955184;29;20180;-74
2022/09/21 06:36:55;;;;;;;9.63;4.90;;;6.80;99.90;;;;;;4935627;29;20240;-76
2022/09/21 06:39:21;;;;;;;8.40;5.65;;;6.90;99.90;;;;;;4937235;29;20235;-74
2022/09/21 06:41:47;;;;;;;9.80;5.47;;;7.00;99.90;;;;;;4955056;29;20216;-76
2022/09/21 06:44:12;;;;;;;5.20;4.50;;;7.00;99.90;;;;;;4953077;29;20193;-74
2022/09/21 06:46:38;;;;;;;9.80;4.50;;;7.10;99.90;;;;;;4954726;29;20640;-75
2022/09/21 06:49:03;;;;;;;9.60;5.53;;;7.10;99.90;;;;;;4953917;28;20256;-75
2022/09/21 06:51:29;;;;;;;8.70;5.37;;;7.20;99.90;;;;;;4953991;29;20193;-74
2022/09/21 06:53:58;;;;;;;10.03;5.27;;;7.30;99.90;;;;;;4953693;28;20890;-76
2022/09/21 06:56:24;;;;;;;9.98;5.47;;;7.40;99.90;;;;;;4937284;29;20212;-75
2022/09/21 06:58:51;;;;;;;11.50;5.03;;;7.20;99.90;;;;;;4953302;28;20231;-76
2022/09/21 07:01:17;;;;;;;12.43;4.85;;;7.40;99.90;;;;;;4954644;28;20665;-74
2022/09/21 07:03:43;;;;;;;8.48;6.20;;;7.50;99.90;;;;;;4937654;29;20197;-76
2022/09/21 07:06:12;;;;;;;10.65;5.65;;;7.70;99.90;;;;;;4936786;29;20211;-76
2022/09/21 07:08:38;;;;;;;6.20;5.60;;;7.80;99.90;;;;;;4955993;29;20185;-75
2022/09/21 07:11:05;;;;;;;9.50;6.05;;;7.80;99.90;;;;;;4956152;29;20653;-74
2022/09/21 07:13:30;;;;;;;6.15;5.55;;;8.00;99.90;;;;;;4955848;29;20240;-75
2022/09/21 07:15:56;;;;;;;8.03;6.00;;;8.10;99.90;;;;;;4938549;29;20208;-75
2022/09/21 07:18:22;;;;;;;7.07;5.70;;;8.20;99.90;;;;;;4954755;29;20428;-74
2022/09/21 07:20:48;;;;;;;7.57;5.47;;;8.30;99.90;;;;;;4954754;29;20189;-75
2022/09/21 07:23:16;;;;;;;8.90;6.20;;;8.30;99.90;;;;;;4938869;29;20248;-76
2022/09/21 07:25:43;;;;;;;10.75;7.80;;;8.40;99.90;;;;;;4955727;29;20479;-76
2022/09/21 07:28:09;;;;;;;10.95;6.70;;;8.50;99.90;;;;;;4955817;29;20208;-76
2022/09/21 07:30:36;;;;;;;9.10;6.70;;;8.60;99.90;;;;;;4955735;29;20592;-77
2022/09/21 07:33:02;;;;;;;11.00;6.85;;;8.70;99.90;;;;;;4938652;29;20184;-74
2022/09/21 07:35:27;;;;;;;13.30;6.43;;;8.80;99.90;;;;;;4955452;28;20207;-75
2022/09/21 07:37:55;;;;;;;10.67;6.17;;;8.90;99.90;;;;;;4955390;28;20209;-75
2022/09/21 07:40:21;;;;;;;9.52;7.50;;;8.90;99.90;;;;;;4955796;28;20177;-76
2022/09/21 07:42:46;;;;;;;10.47;6.90;;;9.00;99.90;;;;;;4956121;28;20622;-77
2022/09/21 07:45:12;;;;;;;10.30;7.00;;;9.10;99.90;;;;;;4955382;29;20189;-76
2022/09/21 07:47:37;;;;;;;10.40;7.67;;;9.20;99.90;;;;;;4955604;29;20209;-74
2022/09/21 07:50:03;;;;;;;12.10;7.07;;;9.30;99.90;;;;;;4955374;28;20216;-75
2022/09/21 07:52:29;;;;;;;15.97;7.50;;;9.30;99.90;;;;;;4955474;29;20179;-75
2022/09/21 07:54:54;;;;;;;12.00;8.17;;;9.50;99.90;;;;;;4955090;28;20893;-74
2022/09/21 08:00:05;;;;;;;11.35;7.20;;;9.60;99.90;;;;;;4955685;29;20680;-75
2022/09/21 08:02:30;;;;;;;11.85;7.47;;;9.80;99.90;;;;;;4953992;29;20195;-76
2022/09/21 08:04:56;;;;;;;14.07;9.93;;;10.00;99.90;;;;;;4954871;28;20181;-75
2022/09/21 08:07:22;;;;;;;13.83;10.40;;;10.20;99.90;;;;;;4955206;29;20220;-76
2022/09/21 08:09:49;;;;;;;14.57;10.00;;;10.20;99.90;;;;;;4937751;28;20580;-75
2022/09/21 08:12:17;;;;;;;13.13;9.50;;;10.30;99.90;;;;;;4955264;29;20492;-76
2022/09/21 08:14:43;;;;;;;13.10;11.27;;;10.40;99.90;;;;;;4954800;29;20201;-76
2022/09/21 08:17:09;;;;;;;19.70;11.77;;;10.50;99.90;;;;;;4937719;29;20535;-76
2022/09/21 08:19:35;;;;;;;11.60;10.40;;;10.60;99.90;;;;;;4955213;29;20614;-75
2022/09/21 08:22:01;;;;;;;15.33;11.20;;;10.80;99.90;;;;;;4953958;28;20188;-76
2022/09/21 08:24:26;;;;;;;15.93;11.37;;;10.90;99.90;;;;;;4954941;29;20435;-76
2022/09/21 08:26:52;;;;;;;12.97;9.57;;;10.90;99.90;;;;;;4955000;28;20512;-76
2022/09/21 08:29:18;;;;;;;20.65;12.63;;;11.10;99.90;;;;;;4954854;28;20193;-76
2022/09/21 08:31:45;;;;;;;17.07;11.33;;;11.20;99.90;;;;;;4955022;29;20528;-75
2022/09/21 08:34:11;;;;;;;15.45;10.80;;;11.40;99.90;;;;;;4954929;28;20169;-74
2022/09/21 08:36:36;;;;;;;18.27;12.50;;;11.50;99.90;;;;;;4937981;29;20211;-76
2022/09/21 08:39:06;;;;;;;20.00;13.20;;;11.70;99.90;;;;;;4954847;29;20423;-74
2022/09/21 08:41:55;;;;;;;13.57;9.93;;;11.90;99.90;;;;;;4955056;28;20208;-76
2022/09/21 08:44:26;;;;;;;16.17;10.60;;;12.40;99.90;;;;;;4954191;28;20519;-75
2022/09/21 08:47:04;;;;;;;13.33;8.83;;;12.70;99.90;;;;;;4954759;28;20464;-75
2022/09/21 08:49:32;;;;;;;9.93;8.27;;;13.40;99.90;;;;;;4937660;29;20523;-74
2022/09/21 08:52:04;;;;;;;14.00;8.37;;;13.70;99.90;;;;;;4954928;29;20807;-75
2022/09/21 08:54:52;;;;;;;10.57;7.80;;;14.00;99.90;;;;;;4954535;29;20439;-75
2022/09/21 08:57:19;;;;;;;9.63;7.63;;;14.20;99.90;;;;;;4954568;29;20548;-75
2022/09/21 08:59:47;;;;;;;17.20;8.57;;;14.40;99.90;;;;;;4954833;29;20420;-74
2022/09/21 09:02:44;;;;;;;10.80;6.90;;;14.80;99.90;;;;;;4954600;29;20449;-77
2022/09/21 09:05:13;;;;;;;11.13;7.10;;;14.80;99.90;;;;;;4926034;28;20420;-76
2022/09/21 09:08:09;;;;;;;16.60;8.07;;;15.50;99.90;;;;;;4954521;29;20445;-75
2022/09/21 09:11:02;;;;;;;9.60;7.20;;;16.00;99.90;;;;;;4954803;29;20412;-75
2022/09/21 09:14:11;;;;;;;10.07;6.87;;;15.70;99.90;;;;;;4954654;29;20895;-76
2022/09/21 09:16:59;;;;;;;12.30;8.00;;;16.30;99.90;;;;;;4952421;29;20814;-76
2022/09/21 09:19:28;;;;;;;16.60;8.13;;;16.40;99.90;;;;;;4954569;29;20405;-77
2022/09/21 09:21:55;;;;;;;9.90;6.97;;;16.80;99.90;;;;;;4954667;28;20408;-75
2022/09/21 09:24:42;;;;;;;12.10;8.20;;;17.10;99.90;;;;;;4940837;29;20423;-75
2022/09/21 09:27:33;;;;;;;11.20;7.53;;;17.70;99.90;;;;;;4957985;29;20972;-77
2022/09/21 09:30:02;;;;;;;10.77;8.13;;;17.30;99.90;;;;;;4940881;29;21020;-75
2022/09/21 09:32:53;;;;;;;12.60;7.40;;;17.10;99.90;;;;;;4958123;28;20423;-78
2022/09/21 09:35:35;;;;;;;13.23;7.73;;;16.90;99.90;;;;;;4957687;29;20413;-76
2022/09/21 09:38:18;;;;;;;12.70;7.03;;;16.80;99.90;;;;;;4958117;29;20387;-77
2022/09/21 09:41:00;;;;;;;8.93;7.20;;;17.30;99.90;;;;;;4957924;28;20491;-77
2022/09/21 09:43:55;;;;;;;11.50;7.47;;;17.80;99.90;;;;;;4957802;28;20427;-75
2022/09/21 09:46:36;;;;;;;11.63;7.13;;;17.50;99.90;;;;;;4957869;29;20535;-77
2022/09/21 09:49:16;;;;;;;14.27;6.60;;;18.40;99.90;;;;;;4957713;29;20480;-76
2022/09/21 09:51:42;;;;;;;12.00;6.97;;;18.90;99.90;;;;;;4956726;29;20435;-76
2022/09/21 09:54:14;;;;;;;11.73;6.97;;;19.40;99.90;;;;;;4957357;29;20429;-77
2022/09/21 09:56:40;;;;;;;11.30;6.70;;;19.80;99.90;;;;;;4957610;28;20284;-78
2022/09/21 09:59:28;;;;;;;12.60;7.73;;;20.00;99.90;;;;;;4924557;29;21011;-77
2022/09/21 10:02:19;;;;;;;12.37;7.33;;;20.00;99.90;;;;;;4957518;29;20412;-78
2022/09/21 10:04:55;;;;;;;11.27;6.93;;;19.70;99.90;;;;;;4957185;29;20386;-78
2022/09/21 10:07:33;;;;;;;10.73;6.30;;;20.40;99.90;;;;;;4957207;29;20789;-78
2022/09/21 10:09:59;;;;;;;13.47;6.27;;;20.90;99.90;;;;;;4957561;29;21108;-78
2022/09/21 10:12:26;;;;;;;11.90;7.17;;;20.70;99.90;;;;;;4957369;29;20490;-76
2022/09/21 10:14:56;;;;;;;11.77;7.60;;;21.00;99.90;;;;;;4939811;29;20552;-75
2022/09/21 10:17:23;;;;;;;23.40;8.83;;;19.60;99.90;;;;;;4957275;28;20930;-77
2022/09/21 10:20:02;;;;;;;14.40;7.93;;;20.40;99.90;;;;;;4957296;29;20462;-79
2022/09/21 10:22:29;;;;;;;11.00;7.10;;;21.50;99.90;;;;;;4957355;29;20416;-77
2022/09/21 10:24:58;;;;;;;10.23;7.20;;;21.60;99.90;;;;;;4956917;29;20413;-77
2022/09/21 10:27:29;;;;;;;13.27;7.40;;;21.30;99.90;;;;;;4956925;29;21040;-76
2022/09/21 10:29:55;;;;;;;12.17;7.13;;;22.00;99.90;;;;;;4939520;29;20444;-77
2022/09/21 10:32:25;;;;;;;8.07;6.70;;;22.60;99.90;;;;;;4957161;29;20417;-79
2022/09/21 10:35:06;;;;;;;10.93;7.57;;;23.00;99.90;;;;;;4956342;28;20417;-78
2022/09/21 10:37:48;;;;;;;9.43;7.53;;;23.50;99.90;;;;;;4955664;29;20441;-75
2022/09/21 10:40:19;;;;;;;11.17;8.03;;;23.50;99.90;;;;;;4939769;29;20767;-78
2022/09/21 10:42:48;;;;;;;14.37;7.43;;;23.10;99.90;;;;;;4956996;29;20420;-76
2022/09/21 10:45:18;;;;;;;12.73;7.77;;;23.20;99.90;;;;;;4956569;28;20416;-75
2022/09/21 10:47:50;;;;;;;10.83;7.50;;;22.40;99.90;;;;;;4956360;29;20468;-77
2022/09/21 10:50:29;;;;;;;11.30;7.83;;;21.90;99.90;;;;;;4956719;29;20405;-78
2022/09/21 10:53:28;;;;;;;11.53;6.93;;;22.00;99.90;;;;;;4956557;29;20785;-76
2022/09/21 10:55:59;;;;;;;11.43;6.97;;;21.70;99.90;;;;;;4952823;29;20456;-82
2022/09/21 10:58:25;;;;;;;5.77;4.70;;;21.60;99.90;;;;;;4956720;29;21044;-78
2022/09/21 11:00:54;;;;;;;6.97;5.60;;;21.20;99.90;;;;;;4956524;29;20799;-77
2022/09/21 11:03:44;;;;;;;5.77;4.50;;;21.80;99.90;;;;;;4956358;28;20416;-79
2022/09/21 11:06:28;;;;;;;5.70;3.37;;;22.00;99.90;;;;;;4938852;29;20442;-80
2022/09/21 11:09:03;;;;;;;6.83;3.70;;;22.50;99.90;;;;;;4956364;29;20821;-80
2022/09/21 11:11:46;;;;;;;4.63;2.87;;;22.00;99.90;;;;;;4956296;29;20749;-80
2022/09/21 11:14:36;;;;;;;6.10;2.97;;;21.60;99.90;;;;;;4954687;29;20544;-78
2022/09/21 11:17:26;;;;;;;6.77;2.60;;;20.80;99.90;;;;;;4956198;28;20992;-78
2022/09/21 11:19:58;;;;;;;3.40;2.20;;;21.00;99.90;;;;;;4956434;29;20449;-78
2022/09/21 11:22:37;;;;;;;5.13;2.60;;;21.40;99.90;;;;;;4956068;29;20416;-80
2022/09/21 11:25:22;;;;;;;2.70;1.27;;;21.70;99.90;;;;;;4955858;28;20408;-80
2022/09/21 11:27:55;;;;;;;6.97;2.10;;;22.30;99.90;;;;;;4938749;29;20566;-80
2022/09/21 11:30:21;;;;;;;5.47;1.50;;;22.30;99.90;;;;;;4938601;29;20531;-76
2022/09/21 11:33:14;;;;;;;3.87;1.67;;;22.50;99.90;;;;;;4955793;29;20428;-78
2022/09/21 11:36:01;;;;;;;3.97;2.10;;;22.80;99.90;;;;;;4938308;29;20436;-77
2022/09/21 11:39:04;;;;;;;3.70;1.70;;;23.40;99.90;;;;;;4955801;29;20442;-76
2022/09/21 11:41:43;;;;;;;2.70;1.10;;;23.80;99.90;;;;;;4955789;29;20408;-80
2022/09/21 11:44:29;;;;;;;4.80;2.00;;;24.00;99.90;;;;;;4955328;29;20827;-78
2022/09/21 11:47:36;;;;;;;5.33;1.70;;;24.00;99.90;;;;;;4939930;29;20538;-80
2022/09/21 11:50:21;;;;;;;2.20;1.13;;;24.30;99.90;;;;;;4955624;28;20401;-79
2022/09/21 11:53:19;;;;;;;2.00;1.27;;;24.10;99.90;;;;;;4955672;29;20412;-80
2022/09/21 11:56:06;;;;;;;3.97;1.87;;;24.80;98.10;;;;;;4952970;29;20576;-78
2022/09/21 11:58:48;;;;;;;3.70;1.70;;;25.00;97.60;;;;;;4955403;29;20416;-80
2022/09/21 12:01:44;;;;;;;6.60;1.80;;;24.70;95.60;;;;;;4954246;29;20424;-76
2022/09/21 12:04:21;;;;;;;3.43;1.50;;;24.50;94.20;;;;;;4955361;28;20416;-81
2022/09/21 12:07:20;;;;;;;7.53;1.30;;;23.80;93.50;;;;;;4954545;29;20551;-77
2022/09/21 12:10:15;;;;;;;2.13;1.23;;;24.20;99.50;;;;;;4955300;29;20412;-79
2022/09/21 12:12:53;;;;;;;3.10;1.40;;;24.50;97.60;;;;;;4951430;28;20432;-77
2022/09/21 12:15:27;;;;;;;2.60;1.40;;;24.70;96.40;;;;;;4955289;29;20405;-77
2022/09/21 12:18:06;;;;;;;5.80;1.47;;;24.80;97.00;;;;;;4955701;29;20435;-80
2022/09/21 12:20:53;;;;;;;2.10;1.57;;;25.20;95.30;;;;;;4955297;28;20420;-79
2022/09/21 12:23:26;;;;;;;3.10;1.53;;;25.70;91.50;;;;;;4955427;28;20408;-77
2022/09/21 12:25:56;;;;;;;2.40;1.00;;;25.90;89.80;;;;;;4955215;28;20433;-79
2022/09/21 12:28:25;;;;;;;3.33;1.67;;;24.90;87.20;;;;;;4955303;29;20507;-81
2022/09/21 12:30:57;;;;;;;5.00;2.03;;;24.40;91.20;;;;;;4955003;28;20483;-81
2022/09/21 12:33:32;;;;;;;2.60;1.23;;;25.20;92.30;;;;;;4955260;29;20856;-78
2022/09/21 12:36:08;;;;;;;2.67;1.40;;;25.70;90.70;;;;;;4937521;29;20937;-77
2022/09/21 12:38:43;;;;;;;3.43;1.07;;;25.80;84.30;;;;;;4955222;29;20400;-77
2022/09/21 12:41:20;;;;;;;2.77;1.30;;;26.20;88.50;;;;;;4955384;29;20455;-81
2022/09/21 12:44:12;;;;;;;2.77;1.50;;;26.20;80.10;;;;;;4937903;29;20420;-80
2022/09/21 12:46:47;;;;;;;2.23;1.10;;;26.50;80.80;;;;;;4950111;29;20466;-80
2022/09/21 12:49:30;;;;;;;4.47;1.83;;;26.70;83.00;;;;;;4955208;29;20416;-77
2022/09/21 12:52:05;;;;;;;1.80;1.07;;;26.30;75.10;;;;;;4955163;29;20491;-81
2022/09/21 12:54:48;;;;;;;2.80;1.10;;;26.50;73.50;;;;;;4953393;28;20423;-79
2022/09/21 12:57:49;;;;;;;2.93;1.10;;;26.10;77.90;;;;;;4957164;28;20443;-80
2022/09/21 13:00:19;;;;;;;4.23;1.23;;;26.50;79.00;;;;;;4931433;29;20443;-79
2022/09/21 13:02:57;;;;;;;4.00;1.10;;;24.80;76.00;;;;;;4958735;28;20428;-78
2022/09/21 13:05:44;;;;;;;2.80;1.10;;;23.50;80.40;;;;;;4958172;28;20415;-79
2022/09/21 13:08:16;;;;;;;2.23;0.80;;;23.40;83.30;;;;;;4958427;28;20470;-77
2022/09/21 13:10:43;;;;;;;2.27;1.20;;;23.40;83.30;;;;;;4941071;29;20428;-78
2022/09/21 13:13:29;;;;;;;2.80;0.87;;;24.20;79.70;;;;;;4941088;28;20961;-81
2022/09/21 13:15:58;;;;;;;2.57;1.00;;;25.20;79.30;;;;;;4956793;28;20944;-77
2022/09/21 13:18:28;;;;;;;3.37;0.97;;;25.70;74.30;;;;;;4941246;29;20427;-77
2022/09/21 13:20:55;;;;;;;3.30;1.10;;;25.50;75.40;;;;;;4958295;29;20405;-76
2022/09/21 13:23:28;;;;;;;2.10;1.13;;;24.80;75.10;;;;;;4940985;29;20436;-80
2022/09/21 13:26:03;;;;;;;2.83;1.20;;;24.20;77.30;;;;;;4957816;29;20446;-78